Time;durP1;ratioP1;P1;durP2;ratioP2;P2;SDS_P1;SDS_P2;PMS_P1;PMS_P2;Temp;Humidity;BMP_temperature;BMP_pressure;BME280_temperature;BME280_humidity;BME280_pressure;Samples;Min_cycle;Max_cycle;Signal;HPM_P1;HPM_P2
2021/11/15 00:01:20;;;;;;;31.60;26.25;;;24.20;91.40;;;;;;1900675;75;21108;-71
2021/11/15 00:03:51;;;;;;;33.63;26.25;;;24.20;91.40;;;;;;1903688;75;21189;-70
2021/11/15 00:06:21;;;;;;;30.43;23.90;;;24.20;91.40;;;;;;1900550;75;21163;-70
2021/11/15 00:08:52;;;;;;;32.65;24.75;;;24.20;91.30;;;;;;1896105;75;21183;-71
2021/11/15 00:11:26;;;;;;;37.30;30.52;;;24.20;91.80;;;;;;1904631;75;21599;-70
2021/11/15 00:13:55;;;;;;;45.58;35.03;;;24.20;91.30;;;;;;1901299;74;21131;-70
2021/11/15 00:16:28;;;;;;;31.68;24.87;;;24.20;91.70;;;;;;1901255;75;21159;-69
2021/11/15 00:18:59;;;;;;;29.45;24.82;;;24.20;91.20;;;;;;1895337;75;21202;-69
2021/11/15 00:21:30;;;;;;;27.93;22.05;;;24.20;91.30;;;;;;1894807;75;21520;-70
2021/11/15 00:24:00;;;;;;;36.20;27.05;;;24.20;91.30;;;;;;1900953;75;21108;-70
2021/11/15 00:26:32;;;;;;;38.23;24.57;;;24.20;91.30;;;;;;1895254;75;21147;-69
2021/11/15 00:29:02;;;;;;;39.15;24.57;;;24.20;91.10;;;;;;1865023;76;21134;-71
2021/11/15 00:31:33;;;;;;;22.60;18.32;;;24.30;91.10;;;;;;1861065;76;21198;-71
2021/11/15 00:34:04;;;;;;;24.45;19.75;;;24.30;90.90;;;;;;1865318;76;21209;-70
2021/11/15 00:36:35;;;;;;;23.42;18.27;;;24.30;90.90;;;;;;1866821;76;21224;-70
2021/11/15 00:39:10;;;;;;;24.77;18.67;;;24.30;90.70;;;;;;1864295;76;21622;-69
2021/11/15 00:41:44;;;;;;;29.02;19.98;;;24.40;90.60;;;;;;1864748;75;21153;-70
2021/11/15 00:44:15;;;;;;;22.58;18.02;;;24.40;90.60;;;;;;1859846;76;21142;-71
2021/11/15 00:46:48;;;;;;;26.73;19.67;;;24.40;90.70;;;;;;1858871;76;21205;-71
2021/11/15 00:49:19;;;;;;;21.93;17.48;;;24.40;90.60;;;;;;1868275;76;21174;-70
2021/11/15 00:51:50;;;;;;;26.85;20.50;;;24.50;90.50;;;;;;1856993;76;21708;-68
2021/11/15 00:54:23;;;;;;;29.72;22.10;;;24.50;90.50;;;;;;1848583;77;21254;-70
2021/11/15 00:56:55;;;;;;;27.45;18.98;;;24.60;90.50;;;;;;1867483;76;21151;-70
2021/11/15 00:59:28;;;;;;;30.92;21.20;;;24.60;90.40;;;;;;1862417;76;21136;-70
2021/11/15 01:01:58;;;;;;;20.90;16.02;;;24.70;90.00;;;;;;1861264;76;21197;-70
2021/11/15 01:04:30;;;;;;;22.15;16.30;;;24.70;89.60;;;;;;1853182;76;21173;-71
2021/11/15 01:07:01;;;;;;;21.12;16.27;;;24.70;89.80;;;;;;1852362;76;21134;-70
2021/11/15 01:09:32;;;;;;;22.17;17.55;;;24.80;89.90;;;;;;1856339;76;21178;-70
2021/11/15 01:12:03;;;;;;;22.15;16.17;;;24.80;89.80;;;;;;1856769;76;21146;-70
2021/11/15 01:14:34;;;;;;;18.62;15.58;;;24.80;89.90;;;;;;1858878;76;21153;-70
2021/11/15 01:17:05;;;;;;;27.37;18.15;;;24.90;89.80;;;;;;1856876;76;21175;-69
2021/11/15 01:19:36;;;;;;;22.37;15.93;;;24.90;89.60;;;;;;1864387;76;21192;-69
2021/11/15 01:22:07;;;;;;;19.77;14.10;;;25.00;89.40;;;;;;1868886;76;21181;-70
2021/11/15 01:24:38;;;;;;;18.87;13.55;;;25.00;88.40;;;;;;1876755;76;21169;-69
2021/11/15 01:27:09;;;;;;;16.80;13.55;;;25.00;87.80;;;;;;1877547;76;21575;-70
2021/11/15 01:29:40;;;;;;;17.77;14.30;;;25.10;87.50;;;;;;1900515;74;21081;-70
2021/11/15 01:32:11;;;;;;;18.40;13.28;;;25.10;87.10;;;;;;1862124;77;21689;-70
2021/11/15 01:34:42;;;;;;;20.45;14.93;;;25.20;86.90;;;;;;1900062;75;21556;-70
2021/11/15 01:37:13;;;;;;;19.12;15.08;;;25.20;87.10;;;;;;1847327;77;21651;-70
2021/11/15 01:39:44;;;;;;;19.90;14.65;;;25.30;86.90;;;;;;1900127;75;21679;-70
2021/11/15 01:42:15;;;;;;;18.10;14.07;;;25.30;86.60;;;;;;1889874;75;21875;-70
2021/11/15 01:44:48;;;;;;;18.12;14.23;;;25.30;86.50;;;;;;1882050;75;21612;-86
2021/11/15 01:47:26;;;;;;;19.73;15.60;;;25.40;86.30;;;;;;1884000;75;21154;-82
2021/11/15 01:49:57;;;;;;;16.15;13.45;;;25.40;86.30;;;;;;1890574;75;21140;-80
2021/11/15 01:52:28;;;;;;;18.17;13.48;;;25.50;86.40;;;;;;1888691;75;21093;-81
2021/11/15 01:55:03;;;;;;;20.40;13.55;;;25.50;85.40;;;;;;1890610;75;21100;-82
2021/11/15 01:57:43;;;;;;;18.98;13.85;;;25.50;85.20;;;;;;1867860;75;21596;-81
2021/11/15 02:00:23;;;;;;;17.42;13.65;;;25.60;85.40;;;;;;1882399;75;21136;-83
2021/11/15 02:03:01;;;;;;;16.75;13.38;;;25.60;85.40;;;;;;1862361;75;21096;-81
2021/11/15 02:05:42;;;;;;;;;;;25.70;86.40;;;;;;1876079;75;21108;-82
2021/11/15 02:08:14;;;;;;;16.12;13.38;;;25.80;85.50;;;;;;1883740;75;20212;-83
2021/11/15 02:10:48;;;;;;;14.45;11.78;;;25.80;85.20;;;;;;1881831;74;21150;-84
2021/11/15 02:13:22;;;;;;;16.07;12.40;;;25.80;85.70;;;;;;1878427;74;21120;-84
2021/11/15 02:15:54;;;;;;;15.83;11.90;;;25.90;84.50;;;;;;1901127;75;21128;-81
2021/11/15 02:18:25;;;;;;;14.55;11.35;;;25.90;84.50;;;;;;1872284;75;21140;-82
2021/11/15 02:21:00;;;;;;;13.58;10.98;;;25.90;84.00;;;;;;1875980;75;21559;-82
2021/11/15 02:23:33;;;;;;;16.10;10.20;;;26.00;83.20;;;;;;1886280;75;21132;-82
2021/11/15 02:26:06;;;;;;;13.58;10.88;;;26.10;83.60;;;;;;1845159;75;21064;-72
2021/11/15 02:28:39;;;;;;;12.75;10.72;;;26.20;82.50;;;;;;1883853;75;21129;-70
2021/11/15 02:31:11;;;;;;;14.80;10.82;;;26.20;82.80;;;;;;1856605;77;21112;-71
2021/11/15 02:33:43;;;;;;;12.95;10.48;;;26.30;82.70;;;;;;1849640;76;21069;-71
2021/11/15 02:36:15;;;;;;;12.82;9.90;;;26.30;82.50;;;;;;1885429;75;21160;-70
2021/11/15 02:38:47;;;;;;;11.48;9.68;;;26.30;82.30;;;;;;1891382;75;21175;-70
2021/11/15 02:41:18;;;;;;;12.25;10.88;;;26.40;82.20;;;;;;1887991;75;21726;-69
2021/11/15 02:43:50;;;;;;;13.22;10.50;;;26.40;82.30;;;;;;1850977;77;21096;-69
2021/11/15 02:46:21;;;;;;;13.18;10.23;;;26.40;81.70;;;;;;1886135;75;21545;-68
2021/11/15 02:48:52;;;;;;;14.23;10.08;;;26.50;82.00;;;;;;1850360;77;21131;-68
2021/11/15 02:51:24;;;;;;;12.90;9.48;;;26.50;82.10;;;;;;1885627;75;21646;-69
2021/11/15 02:53:55;;;;;;;10.90;9.18;;;26.60;81.50;;;;;;1880583;75;21933;-70
2021/11/15 02:56:26;;;;;;;11.75;8.85;;;26.70;81.30;;;;;;1891777;75;21666;-70
2021/11/15 02:58:57;;;;;;;13.00;8.08;;;26.80;80.90;;;;;;1882632;74;21128;-71
2021/11/15 03:01:30;;;;;;;10.15;8.38;;;26.80;80.70;;;;;;1882707;74;21849;-70
2021/11/15 03:04:00;;;;;;;12.40;8.53;;;27.00;80.30;;;;;;1881280;75;21121;-70
2021/11/15 03:06:31;;;;;;;9.70;8.33;;;27.00;80.00;;;;;;1888377;75;21568;-68
2021/11/15 03:09:02;;;;;;;10.68;8.70;;;27.10;79.40;;;;;;1883975;75;21150;-69
2021/11/15 03:11:33;;;;;;;10.25;8.00;;;27.10;79.20;;;;;;1882572;75;21590;-69
2021/11/15 03:14:03;;;;;;;13.30;9.20;;;27.20;79.30;;;;;;1883287;74;21636;-69
2021/11/15 03:16:34;;;;;;;10.70;8.00;;;27.30;79.10;;;;;;1883406;75;21218;-69
2021/11/15 03:19:05;;;;;;;10.78;7.80;;;27.30;78.50;;;;;;1826014;77;21127;-69
2021/11/15 03:21:36;;;;;;;10.50;8.20;;;27.40;78.70;;;;;;1886442;75;21124;-69
2021/11/15 03:24:07;;;;;;;11.18;8.98;;;27.40;78.70;;;;;;1880961;75;21633;-69
2021/11/15 03:26:38;;;;;;;9.98;7.95;;;27.50;78.60;;;;;;1894367;75;21121;-69
2021/11/15 03:29:08;;;;;;;9.83;7.83;;;27.60;78.60;;;;;;1890012;75;21117;-69
2021/11/15 03:31:40;;;;;;;8.78;7.75;;;27.70;78.10;;;;;;1883341;75;21219;-69
2021/11/15 03:34:13;;;;;;;8.08;7.25;;;27.80;77.70;;;;;;1889070;75;21135;-70
2021/11/15 03:36:45;;;;;;;10.18;7.65;;;27.90;76.90;;;;;;1891402;75;21674;-70
2021/11/15 03:39:17;;;;;;;8.25;7.35;;;28.00;76.70;;;;;;1891850;75;21174;-70
2021/11/15 03:41:48;;;;;;;7.85;7.05;;;28.10;77.30;;;;;;1881935;75;21587;-70
2021/11/15 03:44:20;;;;;;;8.65;6.83;;;28.10;76.60;;;;;;1888594;75;21683;-70
2021/11/15 03:46:51;;;;;;;8.60;7.17;;;28.20;76.70;;;;;;1896175;75;21125;-69
2021/11/15 03:49:21;;;;;;;9.58;7.28;;;28.30;76.00;;;;;;1827283;78;21085;-70
2021/11/15 03:51:53;;;;;;;9.38;6.85;;;28.40;75.50;;;;;;1885409;75;21111;-69
2021/11/15 03:54:24;;;;;;;10.75;7.37;;;28.50;76.00;;;;;;1871977;75;21090;-70
2021/11/15 03:56:54;;;;;;;11.20;8.88;;;28.60;75.60;;;;;;1897728;75;21171;-70
2021/11/15 03:59:25;;;;;;;9.63;7.62;;;28.60;76.00;;;;;;1886664;75;21657;-69
2021/11/15 04:01:56;;;;;;;8.45;7.10;;;28.70;75.70;;;;;;1882067;75;21480;-70
2021/11/15 04:04:31;;;;;;;10.20;6.85;;;28.70;74.60;;;;;;1882189;75;21649;-70
2021/11/15 04:06:59;;;;;;;13.08;8.70;;;28.80;74.40;;;;;;1898496;75;21061;-70
2021/11/15 04:09:30;;;;;;;10.23;8.53;;;28.80;74.50;;;;;;1886558;75;21095;-70
2021/11/15 04:12:03;;;;;;;7.78;6.72;;;28.90;74.50;;;;;;1892077;75;21258;-71
2021/11/15 04:14:33;;;;;;;10.23;7.67;;;28.90;75.20;;;;;;1891626;75;21608;-71
2021/11/15 04:17:05;;;;;;;11.20;7.83;;;29.00;74.50;;;;;;1878895;75;21112;-70
2021/11/15 04:19:35;;;;;;;8.45;7.25;;;29.00;73.50;;;;;;1884437;75;21824;-71
2021/11/15 04:22:06;;;;;;;7.95;6.85;;;29.10;73.80;;;;;;1895091;75;21101;-69
2021/11/15 04:24:37;;;;;;;8.98;7.10;;;29.20;73.00;;;;;;1902747;75;21182;-71
2021/11/15 04:27:08;;;;;;;12.80;7.90;;;29.30;73.90;;;;;;1895340;75;21093;-71
2021/11/15 04:29:39;;;;;;;9.68;7.10;;;29.40;73.00;;;;;;1881462;74;21529;-71
2021/11/15 04:32:11;;;;;;;7.78;6.33;;;29.60;73.00;;;;;;1902057;75;21089;-71
2021/11/15 04:34:42;;;;;;;7.12;6.35;;;29.60;72.90;;;;;;1877691;75;21148;-71
2021/11/15 04:37:12;;;;;;;9.08;6.95;;;29.70;71.30;;;;;;1896696;75;21180;-70
2021/11/15 04:39:43;;;;;;;6.83;5.75;;;29.80;71.40;;;;;;1887485;74;21168;-71
2021/11/15 04:42:14;;;;;;;8.88;6.65;;;29.80;71.50;;;;;;1885995;75;21679;-70
2021/11/15 04:44:45;;;;;;;7.92;6.42;;;29.80;71.60;;;;;;1892476;75;21166;-70
2021/11/15 04:47:16;;;;;;;9.60;6.20;;;29.90;71.40;;;;;;1877780;74;21854;-71
2021/11/15 04:49:47;;;;;;;8.50;5.80;;;30.00;71.30;;;;;;1885493;75;21507;-71
2021/11/15 04:52:22;;;;;;;7.85;6.17;;;30.10;70.80;;;;;;1885599;75;21803;-69
2021/11/15 04:54:59;;;;;;;9.43;5.87;;;30.00;70.80;;;;;;1884904;75;21175;-70
2021/11/15 04:57:43;;;;;;;6.83;5.95;;;30.10;70.50;;;;;;1886928;75;21186;-72
2021/11/15 05:00:07;;;;;;;8.38;6.10;;;30.10;71.00;;;;;;1880213;75;21156;-71
2021/11/15 05:02:57;;;;;;;8.03;6.25;;;30.10;71.30;;;;;;1886226;75;21037;-71
2021/11/15 05:05:30;;;;;;;7.05;5.75;;;30.10;71.50;;;;;;1966628;72;21609;-71
2021/11/15 05:08:01;;;;;;;8.08;5.47;;;30.10;71.90;;;;;;1955791;72;21811;-70
2021/11/15 05:10:32;;;;;;;6.55;5.35;;;30.20;70.00;;;;;;1983263;72;21131;-70
2021/11/15 05:13:03;;;;;;;7.62;5.62;;;30.20;69.80;;;;;;1988865;71;21167;-71
2021/11/15 05:15:34;;;;;;;13.98;5.90;;;30.30;69.60;;;;;;1988768;72;21103;-70
2021/11/15 05:18:07;;;;;;;6.65;5.70;;;30.30;69.40;;;;;;1966343;70;21744;-70
2021/11/15 05:20:38;;;;;;;6.62;5.67;;;30.40;69.60;;;;;;1903908;75;21555;-70
2021/11/15 05:23:09;;;;;;;8.45;5.35;;;30.40;69.70;;;;;;1926782;73;21482;-71
2021/11/15 05:25:40;;;;;;;9.03;6.30;;;30.40;69.00;;;;;;1903247;74;21176;-71
2021/11/15 05:28:11;;;;;;;7.37;5.75;;;30.40;69.20;;;;;;1902465;74;21569;-70
2021/11/15 05:30:42;;;;;;;7.25;5.45;;;30.50;69.40;;;;;;1964054;72;21064;-71
2021/11/15 05:33:14;;;;;;;6.45;4.60;;;30.50;69.10;;;;;;1952397;72;21127;-72
2021/11/15 05:35:45;;;;;;;4.80;4.30;;;30.50;69.10;;;;;;1947131;73;21200;-70
2021/11/15 05:38:15;;;;;;;6.50;4.87;;;30.50;68.50;;;;;;1955726;72;21138;-70
2021/11/15 05:40:47;;;;;;;4.25;3.85;;;30.60;68.60;;;;;;1952172;72;21237;-70
2021/11/15 05:43:18;;;;;;;5.78;4.50;;;30.60;68.30;;;;;;1891386;73;21195;-70
2021/11/15 05:45:48;;;;;;;6.15;4.42;;;30.60;68.30;;;;;;1867393;75;21250;-70
2021/11/15 05:48:19;;;;;;;4.80;4.28;;;30.60;68.60;;;;;;1918975;74;21189;-71
2021/11/15 05:50:50;;;;;;;5.85;4.22;;;30.60;68.20;;;;;;1920050;74;21107;-71
2021/11/15 05:53:21;;;;;;;5.92;4.10;;;30.60;68.10;;;;;;1925097;74;21116;-71
2021/11/15 05:55:51;;;;;;;5.70;4.65;;;30.70;67.50;;;;;;1921422;73;21274;-71
2021/11/15 05:58:23;;;;;;;5.97;4.40;;;30.70;67.90;;;;;;1874520;75;21693;-70
2021/11/15 06:00:56;;;;;;;5.95;4.75;;;30.60;68.00;;;;;;1873815;76;21116;-70
2021/11/15 06:03:26;;;;;;;5.87;4.80;;;30.70;68.00;;;;;;1934819;74;21656;-70
2021/11/15 06:05:56;;;;;;;5.85;4.60;;;30.70;67.80;;;;;;1920732;74;21068;-70
2021/11/15 06:08:27;;;;;;;4.97;4.15;;;30.80;68.00;;;;;;1912890;74;21142;-70
2021/11/15 06:11:08;;;;;;;4.85;4.35;;;30.90;67.80;;;;;;1864214;77;21055;-70
2021/11/15 06:13:40;;;;;;;5.20;4.40;;;30.90;68.20;;;;;;1907583;74;21159;-71
2021/11/15 06:16:11;;;;;;;6.55;5.05;;;31.00;66.90;;;;;;1871470;75;21193;-70
2021/11/15 06:18:43;;;;;;;6.37;4.55;;;31.10;67.00;;;;;;1947246;73;21118;-71
2021/11/15 06:21:25;;;;;;;5.85;4.85;;;31.10;67.90;;;;;;1948505;73;21654;-73
2021/11/15 06:24:04;;;;;;;8.15;4.62;;;31.00;67.10;;;;;;1899495;74;21143;-71
2021/11/15 06:26:35;;;;;;;7.40;4.60;;;30.90;66.70;;;;;;1957512;72;21189;-71
2021/11/15 06:29:05;;;;;;;6.60;4.42;;;30.80;66.90;;;;;;1953755;72;21206;-69
2021/11/15 06:31:36;;;;;;;6.42;5.00;;;30.70;67.90;;;;;;1962881;72;21444;-71
2021/11/15 06:34:07;;;;;;;6.75;4.60;;;30.70;67.60;;;;;;1910811;74;21212;-71
2021/11/15 06:36:38;;;;;;;6.70;4.20;;;30.70;68.00;;;;;;1915119;74;21125;-71
2021/11/15 06:39:08;;;;;;;6.45;4.75;;;30.60;68.30;;;;;;1880616;75;21114;-71
2021/11/15 06:41:39;;;;;;;6.90;5.10;;;30.60;68.00;;;;;;1917171;74;21198;-71
2021/11/15 06:44:10;;;;;;;6.50;4.50;;;30.60;68.30;;;;;;1938976;73;21139;-71
2021/11/15 06:46:41;;;;;;;6.10;4.60;;;30.70;68.00;;;;;;1913598;74;21515;-71
2021/11/15 06:49:12;;;;;;;6.90;5.20;;;30.60;68.10;;;;;;1908657;74;21080;-71
2021/11/15 06:51:43;;;;;;;5.87;4.72;;;30.60;67.90;;;;;;1910644;75;21112;-71
2021/11/15 06:54:16;;;;;;;6.70;4.40;;;30.60;68.20;;;;;;1896522;74;21708;-71
2021/11/15 06:56:48;;;;;;;6.20;3.83;;;30.60;68.00;;;;;;1894236;75;21473;-71
2021/11/15 06:59:20;;;;;;;5.47;3.90;;;30.60;68.40;;;;;;1903304;75;21175;-71
2021/11/15 07:01:50;;;;;;;5.35;4.28;;;30.50;68.70;;;;;;1908532;73;21121;-71
2021/11/15 07:04:21;;;;;;;4.67;4.00;;;30.50;68.60;;;;;;1922618;74;21661;-70
2021/11/15 07:06:52;;;;;;;4.67;4.03;;;30.50;68.90;;;;;;1893466;75;21573;-70
2021/11/15 07:09:23;;;;;;;5.97;4.30;;;30.50;68.50;;;;;;1888869;75;21047;-70
2021/11/15 07:11:54;;;;;;;7.22;4.85;;;30.60;68.40;;;;;;1898229;74;21714;-70
2021/11/15 07:14:25;;;;;;;4.85;4.17;;;30.60;67.90;;;;;;1897195;74;21128;-69
2021/11/15 07:16:56;;;;;;;7.58;4.30;;;30.70;68.00;;;;;;1888255;75;21668;-70
2021/11/15 07:19:27;;;;;;;5.20;4.42;;;30.70;68.30;;;;;;1881835;75;21135;-70
2021/11/15 07:21:58;;;;;;;7.17;4.33;;;30.70;68.30;;;;;;1893206;74;21167;-71
2021/11/15 07:24:29;;;;;;;5.60;4.92;;;30.70;68.00;;;;;;1892986;74;21581;-70
2021/11/15 07:27:00;;;;;;;6.75;4.28;;;30.70;67.60;;;;;;1893616;75;21116;-71
2021/11/15 07:29:30;;;;;;;5.83;4.25;;;30.70;67.00;;;;;;1891880;75;21205;-71
2021/11/15 07:32:08;;;;;;;8.80;4.70;;;30.70;67.50;;;;;;1888827;75;21676;-72
2021/11/15 07:34:34;;;;;;;5.60;4.03;;;30.70;67.60;;;;;;1907899;75;21167;-69
2021/11/15 07:37:05;;;;;;;5.97;4.60;;;30.80;67.70;;;;;;1835564;77;21270;-70
2021/11/15 07:39:43;;;;;;;6.33;4.37;;;30.80;67.80;;;;;;1908018;74;21119;-71
2021/11/15 07:42:11;;;;;;;6.20;4.25;;;30.80;66.80;;;;;;1907563;75;21475;-70
2021/11/15 07:44:42;;;;;;;9.43;5.65;;;30.90;67.90;;;;;;1887320;75;21166;-71
2021/11/15 07:47:15;;;;;;;7.67;5.03;;;30.90;67.30;;;;;;1889309;75;21057;-69
2021/11/15 07:49:46;;;;;;;5.85;4.28;;;30.90;67.00;;;;;;1889306;75;21085;-71
2021/11/15 07:52:18;;;;;;;7.90;4.80;;;30.90;66.80;;;;;;1861585;76;21150;-70
2021/11/15 07:54:50;;;;;;;9.95;5.05;;;30.90;67.20;;;;;;1909854;74;21199;-71
2021/11/15 07:57:21;;;;;;;8.13;5.12;;;30.90;67.20;;;;;;1901412;74;21207;-71
2021/11/15 07:59:51;;;;;;;6.08;4.62;;;31.00;67.60;;;;;;1844273;77;21147;-71
2021/11/15 08:02:22;;;;;;;6.92;4.75;;;31.00;67.50;;;;;;1890557;75;21200;-69
2021/11/15 08:04:54;;;;;;;9.03;4.95;;;31.00;68.00;;;;;;1901616;75;21149;-70
2021/11/15 08:07:24;;;;;;;8.08;5.22;;;31.00;67.40;;;;;;1876679;74;21277;-69
2021/11/15 08:09:55;;;;;;;7.53;4.47;;;30.90;67.40;;;;;;1907248;74;21056;-69
2021/11/15 08:12:28;;;;;;;6.97;4.30;;;30.90;67.80;;;;;;1871793;76;21618;-70
2021/11/15 08:15:02;;;;;;;6.65;4.00;;;30.80;67.50;;;;;;1910720;73;21116;-70
2021/11/15 08:17:32;;;;;;;7.78;6.00;;;30.80;66.60;;;;;;1900418;73;21159;-69
2021/11/15 08:20:05;;;;;;;7.35;4.40;;;30.70;67.10;;;;;;1875277;76;21148;-70
2021/11/15 08:22:36;;;;;;;7.58;4.92;;;30.70;67.10;;;;;;1888412;75;21209;-70
2021/11/15 08:25:09;;;;;;;8.68;4.45;;;30.70;66.90;;;;;;1882044;75;21072;-71
2021/11/15 08:27:40;;;;;;;8.23;4.78;;;30.70;67.40;;;;;;1898659;74;21080;-72
2021/11/15 08:30:11;;;;;;;4.95;4.30;;;30.70;67.30;;;;;;1883684;75;21112;-71
2021/11/15 08:32:43;;;;;;;5.37;3.87;;;30.70;67.00;;;;;;1886322;75;21157;-71
2021/11/15 08:35:14;;;;;;;5.20;3.87;;;30.70;67.10;;;;;;1951057;72;21053;-71
2021/11/15 08:37:47;;;;;;;5.22;3.85;;;30.80;67.20;;;;;;1904271;75;21666;-71
2021/11/15 08:40:17;;;;;;;4.85;4.30;;;30.80;66.90;;;;;;1884822;75;21177;-71
2021/11/15 08:42:49;;;;;;;4.15;3.75;;;30.80;68.00;;;;;;1883796;75;21639;-71
2021/11/15 08:45:20;;;;;;;5.75;3.87;;;30.80;67.00;;;;;;1885731;75;21606;-70
2021/11/15 08:47:51;;;;;;;5.83;3.85;;;30.80;67.00;;;;;;1891601;75;21080;-71
2021/11/15 08:50:22;;;;;;;5.20;3.80;;;30.70;66.90;;;;;;1948601;72;21217;-71
2021/11/15 08:52:53;;;;;;;4.92;3.77;;;30.70;66.90;;;;;;1962059;72;21116;-71
2021/11/15 08:55:25;;;;;;;6.83;4.50;;;30.70;66.80;;;;;;1958780;72;21671;-71
2021/11/15 08:57:56;;;;;;;6.10;4.45;;;30.60;67.00;;;;;;1956238;72;21138;-71
2021/11/15 09:00:28;;;;;;;6.67;4.60;;;30.60;67.40;;;;;;1952347;72;21103;-70
2021/11/15 09:02:59;;;;;;;5.67;4.22;;;30.60;67.40;;;;;;1954605;72;22076;-71
2021/11/15 09:05:30;;;;;;;5.72;4.42;;;30.60;67.30;;;;;;1956511;72;21088;-71
2021/11/15 09:08:01;;;;;;;6.03;4.92;;;30.60;67.40;;;;;;1945689;72;21227;-71
2021/11/15 09:10:32;;;;;;;6.00;4.95;;;30.50;67.60;;;;;;1955646;72;21159;-71
2021/11/15 09:13:03;;;;;;;5.30;4.00;;;30.60;67.90;;;;;;1958863;72;21567;-71
2021/11/15 09:15:34;;;;;;;7.03;4.70;;;30.50;67.90;;;;;;1960893;72;21113;-72
2021/11/15 09:18:05;;;;;;;4.58;4.03;;;30.50;67.90;;;;;;1956668;72;21067;-71
2021/11/15 09:20:36;;;;;;;9.35;4.40;;;30.50;68.10;;;;;;1957794;72;21111;-69
2021/11/15 09:23:07;;;;;;;5.78;4.20;;;30.40;68.20;;;;;;1891252;75;21771;-70
2021/11/15 09:25:40;;;;;;;6.00;4.55;;;30.40;68.30;;;;;;1906301;75;21532;-71
2021/11/15 09:28:12;;;;;;;7.28;5.22;;;30.40;68.20;;;;;;1945508;72;21123;-70
2021/11/15 09:30:44;;;;;;;6.62;4.62;;;30.40;68.20;;;;;;1947309;72;21661;-71
2021/11/15 09:33:16;;;;;;;5.62;4.62;;;30.40;68.30;;;;;;1943634;72;21130;-70
2021/11/15 09:35:50;;;;;;;6.40;4.50;;;30.40;68.60;;;;;;1947009;72;21526;-71
2021/11/15 09:38:20;;;;;;;11.00;5.58;;;30.40;68.60;;;;;;1944937;73;21523;-71
2021/11/15 09:40:56;;;;;;;11.88;6.75;;;30.30;68.80;;;;;;1953044;72;21527;-69
2021/11/15 09:43:34;;;;;;;11.78;6.75;;;30.30;68.90;;;;;;1944311;72;21801;-70
2021/11/15 09:46:04;;;;;;;7.67;5.00;;;30.30;68.90;;;;;;1913751;75;21177;-71
2021/11/15 09:48:37;;;;;;;7.30;4.78;;;30.30;69.20;;;;;;1912665;74;21722;-70
2021/11/15 09:51:08;;;;;;;6.62;4.42;;;30.20;69.30;;;;;;1891667;75;21200;-70
2021/11/15 09:53:41;;;;;;;8.88;5.00;;;30.20;69.40;;;;;;1900063;73;22284;-70
2021/11/15 09:56:14;;;;;;;8.68;6.45;;;30.20;69.40;;;;;;1911343;74;21190;-71
2021/11/15 09:58:45;;;;;;;7.47;5.03;;;30.20;69.50;;;;;;1913102;74;21151;-70
2021/11/15 10:01:16;;;;;;;11.15;4.70;;;30.10;69.80;;;;;;1905096;74;21119;-71
2021/11/15 10:03:48;;;;;;;10.25;5.97;;;30.10;70.00;;;;;;1903637;73;21204;-71
2021/11/15 10:06:21;;;;;;;11.22;8.25;;;30.00;70.10;;;;;;1910938;74;21640;-70
2021/11/15 10:08:54;;;;;;;8.68;5.95;;;30.00;70.20;;;;;;1910486;74;21150;-70
2021/11/15 10:11:27;;;;;;;9.23;6.60;;;30.00;70.50;;;;;;1908914;74;21139;-70
2021/11/15 10:13:58;;;;;;;6.45;5.10;;;29.90;70.30;;;;;;1888929;75;21073;-70
2021/11/15 10:16:34;;;;;;;8.70;4.83;;;29.90;70.50;;;;;;1903767;74;21166;-71
2021/11/15 10:19:07;;;;;;;9.78;6.50;;;29.90;70.70;;;;;;1907150;74;21175;-71
2021/11/15 10:21:41;;;;;;;10.38;6.10;;;29.90;70.70;;;;;;1900437;73;21111;-71
2021/11/15 10:24:14;;;;;;;7.05;5.47;;;29.90;70.90;;;;;;1915707;74;21114;-71
2021/11/15 10:26:48;;;;;;;7.55;4.97;;;29.80;70.90;;;;;;1952420;72;21483;-70
2021/11/15 10:29:20;;;;;;;11.68;4.42;;;29.90;71.20;;;;;;1948989;72;21092;-70
2021/11/15 10:31:54;;;;;;;8.50;4.72;;;29.70;71.30;;;;;;1956556;73;21195;-71
2021/11/15 10:34:27;;;;;;;8.50;5.25;;;29.70;72.30;;;;;;1945161;72;21083;-71
2021/11/15 10:37:00;;;;;;;10.38;5.62;;;29.70;71.70;;;;;;1954240;72;21060;-69
2021/11/15 10:39:33;;;;;;;7.45;4.70;;;29.70;71.70;;;;;;1953196;72;21545;-69
2021/11/15 10:42:07;;;;;;;7.10;5.17;;;29.70;71.90;;;;;;1951614;72;21660;-70
2021/11/15 10:44:39;;;;;;;9.70;5.95;;;29.70;71.90;;;;;;1948362;72;21175;-70
2021/11/15 10:47:10;;;;;;;10.25;5.75;;;29.70;72.10;;;;;;1950914;72;21157;-71
2021/11/15 10:49:41;;;;;;;8.23;5.62;;;29.70;72.20;;;;;;1966999;72;21095;-70
2021/11/15 10:52:15;;;;;;;8.65;5.60;;;29.60;72.30;;;;;;1908588;75;21130;-71
2021/11/15 10:57:20;;;;;;;11.63;7.37;;;29.60;72.70;;;;;;1897179;75;21111;-71
2021/11/15 10:59:53;;;;;;;7.20;5.85;;;29.60;72.90;;;;;;1922146;73;21193;-70
2021/11/15 11:02:26;;;;;;;9.53;6.17;;;29.60;73.00;;;;;;1882915;75;21538;-71
2021/11/15 11:05:00;;;;;;;12.40;6.92;;;29.60;73.20;;;;;;1879249;76;21622;-71
2021/11/15 11:07:31;;;;;;;13.25;7.58;;;29.60;73.20;;;;;;1875179;75;21132;-71
2021/11/15 11:10:03;;;;;;;11.53;6.97;;;29.50;73.40;;;;;;1910443;74;21119;-71
2021/11/15 11:12:35;;;;;;;13.90;7.17;;;29.50;73.50;;;;;;1910239;74;21079;-69
2021/11/15 11:15:09;;;;;;;15.10;8.23;;;29.50;73.60;;;;;;1905582;74;21657;-70
2021/11/15 11:17:42;;;;;;;11.03;8.23;;;29.50;73.80;;;;;;1907877;74;21775;-70
2021/11/15 11:23:05;;;;;;;19.70;12.05;;;29.40;73.90;;;;;;1910521;73;21096;-71
2021/11/15 11:25:24;;;;;;;17.35;11.68;;;29.50;74.20;;;;;;1900982;74;21716;-70
2021/11/15 11:27:56;;;;;;;24.45;12.18;;;29.40;74.10;;;;;;1921496;74;21621;-70
2021/11/15 11:30:26;;;;;;;19.02;12.98;;;29.40;74.10;;;;;;1922276;74;21185;-70
2021/11/15 11:32:57;;;;;;;16.95;12.33;;;29.40;74.30;;;;;;1922381;74;21652;-70
2021/11/15 11:35:28;;;;;;;18.90;14.18;;;29.40;74.30;;;;;;1923617;74;21524;-70
2021/11/15 11:37:59;;;;;;;20.37;14.33;;;29.30;74.40;;;;;;1920730;74;21218;-71
2021/11/15 11:40:30;;;;;;;18.25;13.70;;;29.30;74.60;;;;;;1890906;74;21153;-71
2021/11/15 11:43:01;;;;;;;16.67;12.37;;;29.30;74.80;;;;;;1908881;74;21935;-71
2021/11/15 11:45:32;;;;;;;20.32;12.85;;;29.30;74.90;;;;;;1911987;74;21204;-70
2021/11/15 11:48:03;;;;;;;16.45;12.40;;;29.20;75.00;;;;;;1914258;74;21157;-70
2021/11/15 11:50:37;;;;;;;16.25;11.97;;;29.20;75.10;;;;;;1919383;74;21484;-71
2021/11/15 11:53:09;;;;;;;14.80;11.73;;;29.20;75.30;;;;;;1908696;74;21107;-70
2021/11/15 11:55:42;;;;;;;18.62;11.75;;;29.20;75.40;;;;;;1920074;74;21075;-70
2021/11/15 11:58:15;;;;;;;16.80;11.10;;;29.20;75.80;;;;;;1911979;73;21544;-71
2021/11/15 12:00:49;;;;;;;17.32;11.00;;;29.10;76.00;;;;;;1917436;74;21135;-71
2021/11/15 12:03:22;;;;;;;16.85;12.13;;;29.10;76.00;;;;;;1905702;74;21147;-70
2021/11/15 12:05:55;;;;;;;16.42;11.65;;;29.10;76.20;;;;;;1896555;74;22330;-71
2021/11/15 12:08:28;;;;;;;16.32;10.78;;;29.10;76.40;;;;;;1912715;73;21107;-71
2021/11/15 12:10:59;;;;;;;15.63;10.40;;;29.10;76.40;;;;;;1841090;76;21174;-71
2021/11/15 12:13:31;;;;;;;15.13;10.80;;;29.10;76.40;;;;;;1860354;75;21127;-71
2021/11/15 12:16:04;;;;;;;17.10;10.65;;;29.10;76.30;;;;;;1912488;74;21622;-70
2021/11/15 12:18:37;;;;;;;14.73;10.53;;;29.10;76.50;;;;;;1904114;74;21174;-71
2021/11/15 12:21:10;;;;;;;18.32;11.15;;;29.10;76.40;;;;;;1907980;75;21118;-71
2021/11/15 12:23:42;;;;;;;15.13;10.85;;;29.10;76.50;;;;;;1899759;74;21582;-71
2021/11/15 12:26:12;;;;;;;17.67;10.90;;;29.10;76.70;;;;;;1913683;74;21139;-71
2021/11/15 12:28:45;;;;;;;18.57;10.60;;;29.10;77.10;;;;;;1906162;74;21566;-71
2021/11/15 12:31:18;;;;;;;17.73;11.68;;;29.10;77.20;;;;;;1911243;75;21075;-71
2021/11/15 12:33:49;;;;;;;16.40;11.88;;;29.00;77.30;;;;;;1898054;75;21126;-70
2021/11/15 12:36:24;;;;;;;17.77;12.20;;;29.00;77.60;;;;;;1902819;75;21680;-71
2021/11/15 12:38:54;;;;;;;16.67;12.10;;;29.00;77.90;;;;;;1913818;75;21124;-71
2021/11/15 12:41:28;;;;;;;22.17;13.35;;;29.00;78.10;;;;;;1904487;75;22242;-71
2021/11/15 12:44:00;;;;;;;21.52;12.65;;;29.00;78.70;;;;;;1897538;75;21128;-70
2021/11/15 12:46:34;;;;;;;19.35;12.78;;;29.00;78.30;;;;;;1906140;74;21192;-71
2021/11/15 12:49:09;;;;;;;18.17;12.35;;;28.90;78.40;;;;;;1910285;75;21399;-71
2021/11/15 12:51:39;;;;;;;22.65;13.20;;;28.90;78.80;;;;;;1900573;75;21150;-72
2021/11/15 12:54:10;;;;;;;19.87;13.38;;;28.90;78.80;;;;;;1893971;75;21106;-70
2021/11/15 12:56:43;;;;;;;19.52;12.43;;;28.90;78.80;;;;;;1895208;73;21240;-72
2021/11/15 12:59:14;;;;;;;21.33;13.62;;;28.90;79.20;;;;;;1909405;73;21775;-71
2021/11/15 13:01:47;;;;;;;16.85;12.78;;;28.90;79.30;;;;;;1904843;75;21107;-70
2021/11/15 13:04:20;;;;;;;19.40;12.25;;;28.90;79.90;;;;;;1907235;75;21165;-77
2021/11/15 13:06:52;;;;;;;18.23;12.43;;;28.90;79.30;;;;;;1899760;75;21100;-78